createdAt,value
2023-11-26T00:01:01.668Z,18.83
2023-11-26T00:03:29.686Z,18.82
2023-11-26T00:05:57.632Z,18.82
2023-11-26T00:08:26.002Z,18.82
2023-11-26T00:10:54.426Z,18.82
2023-11-26T00:13:24.353Z,18.83
2023-11-26T00:15:52.353Z,18.80
2023-11-26T00:18:20.548Z,18.80
2023-11-26T00:20:48.676Z,18.81
2023-11-26T00:23:16.578Z,18.86
2023-11-26T00:25:44.590Z,18.92
2023-11-26T00:28:14.041Z,18.89
2023-11-26T00:30:43.544Z,18.84
2023-11-26T00:33:11.777Z,18.80
2023-11-26T00:35:39.670Z,18.79
2023-11-26T00:38:07.716Z,18.78
2023-11-26T00:40:36.112Z,18.78
2023-11-26T00:43:04.553Z,18.78
2023-11-26T00:45:32.945Z,18.79
2023-11-26T00:48:02.238Z,18.85
2023-11-26T00:50:30.460Z,18.88
2023-11-26T00:52:58.429Z,18.89
2023-11-26T00:55:26.430Z,18.89
2023-11-26T00:57:54.452Z,18.82
2023-11-26T01:00:22.472Z,18.81
2023-11-26T01:02:50.767Z,18.79
2023-11-26T01:05:20.308Z,18.80
2023-11-26T01:07:48.437Z,18.85
2023-11-26T01:10:16.872Z,18.92
2023-11-26T01:12:45.011Z,18.93
2023-11-26T01:15:13.077Z,18.97
2023-11-26T01:17:41.161Z,18.98
2023-11-26T01:20:11.138Z,18.98
2023-11-26T01:22:40.983Z,18.92
2023-11-26T01:25:09.393Z,18.90
2023-11-26T01:27:37.375Z,18.88
2023-11-26T01:30:06.611Z,18.83
2023-11-26T01:32:36.712Z,18.92
2023-11-26T01:35:05.903Z,18.92
2023-11-26T01:37:34.343Z,19.01
2023-11-26T01:40:04.097Z,19.00
2023-11-26T01:42:31.971Z,19.04
2023-11-26T01:44:59.873Z,19.06
2023-11-26T01:47:27.965Z,19.08
2023-11-26T01:49:56.067Z,19.10
2023-11-26T01:52:24.104Z,19.09
2023-11-26T01:54:52.296Z,19.11
2023-11-26T01:57:22.612Z,19.12
2023-11-26T01:59:50.665Z,19.08
2023-11-26T02:02:18.728Z,19.04
2023-11-26T02:04:46.717Z,19.03
2023-11-26T02:07:14.664Z,18.95
2023-11-26T02:09:42.661Z,19.03
2023-11-26T02:12:11.168Z,19.03
2023-11-26T02:14:40.474Z,19.08
2023-11-26T02:17:08.441Z,19.06
2023-11-26T02:19:37.783Z,19.10
2023-11-26T02:22:09.539Z,19.07
2023-11-26T02:24:42.099Z,19.08
2023-11-26T02:27:10.233Z,19.11
2023-11-26T02:29:40.233Z,19.17
2023-11-26T02:32:08.694Z,19.14
2023-11-26T02:34:37.740Z,19.11
2023-11-26T02:37:05.880Z,19.16
2023-11-26T02:39:35.026Z,19.15
2023-11-26T02:42:05.283Z,19.19
2023-11-26T02:44:33.331Z,19.15
2023-11-26T02:47:01.284Z,19.13
2023-11-26T02:49:29.256Z,19.09
2023-11-26T02:51:57.182Z,19.06
2023-11-26T02:54:25.081Z,19.05
2023-11-26T02:56:53.069Z,19.02
2023-11-26T02:59:22.827Z,19.01
2023-11-26T03:01:51.355Z,19.09
2023-11-26T03:04:23.482Z,19.07
2023-11-26T03:06:53.406Z,19.10
2023-11-26T03:10:00.448Z,19.10
2023-11-26T03:12:46.008Z,19.18
2023-11-26T03:15:16.326Z,19.15
2023-11-26T03:17:44.345Z,19.21
2023-11-26T03:20:14.501Z,19.16
2023-11-26T03:22:43.573Z,19.17
2023-11-26T03:25:11.572Z,19.16
2023-11-26T03:27:39.696Z,19.18
2023-11-26T03:30:11.124Z,19.18
2023-11-26T03:32:40.612Z,19.15
2023-11-26T03:35:09.516Z,19.22
2023-11-26T03:37:37.541Z,19.21
2023-11-26T03:40:08.702Z,19.16
2023-11-26T03:42:37.956Z,19.10
2023-11-26T03:45:06.396Z,19.07
2023-11-26T03:47:34.694Z,19.03
2023-11-26T03:50:06.846Z,19.01
2023-11-26T03:52:35.324Z,19.02
2023-11-26T03:55:03.313Z,19.09
2023-11-26T03:57:31.363Z,19.06
2023-11-26T03:59:59.535Z,19.07
2023-11-26T04:02:27.839Z,19.06
2023-11-26T04:04:55.905Z,19.11
2023-11-26T04:07:26.142Z,18.98
2023-11-26T04:09:54.397Z,18.98
2023-11-26T04:12:22.376Z,18.95
2023-11-26T04:14:57.379Z,18.93
2023-11-26T04:17:26.230Z,18.92
2023-11-26T04:19:54.506Z,18.91
2023-11-26T04:22:23.941Z,18.87
2023-11-26T04:24:54.328Z,18.91
2023-11-26T04:27:23.474Z,18.91
2023-11-26T04:29:52.272Z,19.00
2023-11-26T04:32:20.448Z,18.99
2023-11-26T04:34:48.442Z,18.99
2023-11-26T04:37:16.449Z,19.00
2023-11-26T04:39:45.160Z,18.98
2023-11-26T04:42:14.506Z,18.93
2023-11-26T04:44:43.392Z,18.93
2023-11-26T04:47:11.336Z,18.87
2023-11-26T04:49:39.331Z,18.87
2023-11-26T04:52:07.922Z,18.86
2023-11-26T04:54:35.917Z,18.85
2023-11-26T04:57:03.904Z,18.82
2023-11-26T04:59:33.361Z,18.84
2023-11-26T05:02:07.592Z,18.83
2023-11-26T05:04:36.141Z,18.85
2023-11-26T05:07:05.149Z,18.85
2023-11-26T05:09:33.813Z,18.93
2023-11-26T05:12:03.035Z,19.00
2023-11-26T05:14:31.169Z,19.01
2023-11-26T05:17:00.947Z,19.02
2023-11-26T05:19:28.950Z,19.08
2023-11-26T05:21:57.654Z,19.10
2023-11-26T05:24:25.756Z,19.12
2023-11-26T05:26:54.661Z,19.09
2023-11-26T05:29:22.721Z,19.13
2023-11-26T05:31:50.702Z,19.12
2023-11-26T05:34:20.187Z,19.10
2023-11-26T05:36:48.242Z,19.16
2023-11-26T05:39:16.120Z,19.15
2023-11-26T05:41:44.596Z,19.14
2023-11-26T05:44:12.573Z,19.13
2023-11-26T05:46:43.195Z,19.12
2023-11-26T05:49:11.143Z,19.15
2023-11-26T05:51:40.668Z,19.16
2023-11-26T05:54:08.993Z,19.15
2023-11-26T05:56:36.899Z,19.15
2023-11-26T05:59:04.872Z,19.16
2023-11-26T06:01:32.826Z,19.16
2023-11-26T06:04:00.879Z,19.18
2023-11-26T06:06:29.415Z,19.17
2023-11-26T06:08:58.725Z,19.18
2023-11-26T06:11:26.753Z,19.20
2023-11-26T06:13:54.730Z,19.15
2023-11-26T06:16:22.672Z,19.19
2023-11-26T06:18:50.629Z,19.20
2023-11-26T06:21:19.897Z,19.20
2023-11-26T06:23:47.956Z,19.16
2023-11-26T06:26:21.706Z,19.16
2023-11-26T06:28:49.666Z,19.21
2023-11-26T06:31:20.983Z,19.27
2023-11-26T06:33:49.243Z,19.20
2023-11-26T06:36:20.750Z,19.25
2023-11-26T06:38:48.833Z,19.13
2023-11-26T06:41:26.322Z,19.14
2023-11-26T06:43:55.246Z,19.14
2023-11-26T06:46:24.622Z,19.18
2023-11-26T06:48:52.988Z,19.18
2023-11-26T06:51:21.503Z,19.20
2023-11-26T06:53:50.146Z,19.16
2023-11-26T06:56:18.357Z,19.15
2023-11-26T06:58:47.991Z,19.20
2023-11-26T07:01:16.676Z,19.22
2023-11-26T07:03:45.383Z,19.17
2023-11-26T07:06:13.776Z,19.05
2023-11-26T07:08:44.736Z,19.16
2023-11-26T07:11:20.005Z,19.15
2023-11-26T07:13:49.660Z,19.07
2023-11-26T07:16:18.960Z,19.01
2023-11-26T07:18:47.004Z,18.97
2023-11-26T07:21:15.957Z,19.00
2023-11-26T07:23:44.250Z,19.02
2023-11-26T07:26:13.487Z,19.04
2023-11-26T07:28:41.666Z,19.07
2023-11-26T07:31:16.490Z,19.06
2023-11-26T07:33:44.662Z,19.07
2023-11-26T07:36:15.814Z,19.05
2023-11-26T07:38:44.426Z,18.99
2023-11-26T07:41:12.420Z,18.97
2023-11-26T07:43:40.717Z,18.94
2023-11-26T07:46:09.862Z,18.87
2023-11-26T07:48:41.912Z,18.89
2023-11-26T07:51:09.861Z,18.88
2023-11-26T07:53:39.566Z,18.86
2023-11-26T07:56:08.218Z,18.82
2023-11-26T07:58:36.311Z,18.84
2023-11-26T08:01:04.166Z,18.85
2023-11-26T08:03:33.447Z,18.89
2023-11-26T08:06:03.200Z,18.96
2023-11-26T08:08:36.424Z,19.03
2023-11-26T08:11:07.267Z,19.04
2023-11-26T08:13:39.210Z,19.05
2023-11-26T08:16:09.221Z,19.07
2023-11-26T08:18:38.258Z,19.06
2023-11-26T08:21:08.609Z,18.99
2023-11-26T08:23:39.596Z,18.94
2023-11-26T08:26:13.482Z,18.91
2023-11-26T08:28:43.448Z,18.88
2023-11-26T08:31:12.456Z,18.91
2023-11-26T08:33:45.027Z,19.08
2023-11-26T08:36:19.792Z,19.15
2023-11-26T08:38:48.877Z,19.11
2023-11-26T08:41:22.273Z,19.16
2023-11-26T08:43:52.731Z,19.14
2023-11-26T08:46:22.851Z,19.13
2023-11-26T08:48:53.711Z,19.18
2023-11-26T08:51:23.615Z,19.14
2023-11-26T08:53:51.688Z,19.19
2023-11-26T08:56:20.002Z,19.19
2023-11-26T08:58:48.321Z,19.17
2023-11-26T09:01:16.432Z,19.19
2023-11-26T09:03:44.658Z,19.19
2023-11-26T09:06:12.663Z,19.18
2023-11-26T09:08:42.304Z,19.22
2023-11-26T09:11:10.159Z,19.22
2023-11-26T09:13:38.834Z,19.24
2023-11-26T09:16:07.710Z,19.22
2023-11-26T09:18:38.420Z,19.22
2023-11-26T09:21:07.178Z,19.20
2023-11-26T09:23:35.530Z,19.18
2023-11-26T09:26:06.106Z,19.18
2023-11-26T09:28:34.026Z,19.20
2023-11-26T09:31:05.229Z,19.21
2023-11-26T09:33:33.760Z,19.21
2023-11-26T09:36:02.298Z,19.21
2023-11-26T09:38:30.269Z,19.24
2023-11-26T09:40:58.217Z,19.22
2023-11-26T09:43:27.678Z,19.21
2023-11-26T09:45:55.954Z,19.21
2023-11-26T09:48:23.974Z,19.23
2023-11-26T09:50:53.805Z,19.25
2023-11-26T09:53:22.454Z,19.22
2023-11-26T09:55:51.266Z,19.22
2023-11-26T09:58:19.220Z,19.24
2023-11-26T10:00:48.731Z,19.27
2023-11-26T10:03:16.972Z,19.21
2023-11-26T10:05:44.995Z,19.28
2023-11-26T10:08:29.396Z,19.28
2023-11-26T10:10:57.439Z,19.27
2023-11-26T10:13:37.672Z,19.30
2023-11-26T10:16:09.055Z,19.33
2023-11-26T10:18:41.712Z,19.31
2023-11-26T10:21:09.923Z,19.38
2023-11-26T10:23:40.111Z,19.35
2023-11-26T10:26:18.931Z,19.34
2023-11-26T10:28:59.714Z,19.36
2023-11-26T10:31:29.213Z,19.40
2023-11-26T10:34:13.092Z,19.36
2023-11-26T10:36:41.144Z,19.40
2023-11-26T10:39:11.047Z,19.42
2023-11-26T10:41:39.751Z,19.36
2023-11-26T10:44:07.879Z,19.40
2023-11-26T10:46:38.003Z,19.37
2023-11-26T10:49:11.288Z,19.35
2023-11-26T10:51:40.788Z,19.39
2023-11-26T10:54:12.685Z,19.40
2023-11-26T10:56:41.352Z,19.38
2023-11-26T10:59:10.110Z,19.37
2023-11-26T11:01:40.063Z,19.36
2023-11-26T11:04:13.368Z,19.38
2023-11-26T11:06:41.598Z,19.36
2023-11-26T11:09:14.504Z,19.39
2023-11-26T11:11:48.696Z,19.33
2023-11-26T11:14:17.521Z,19.37
2023-11-26T11:16:46.972Z,19.39
2023-11-26T11:19:35.073Z,19.35
2023-11-26T11:22:03.116Z,19.27
2023-11-26T11:24:31.989Z,19.24
2023-11-26T11:27:00.220Z,19.22
2023-11-26T11:29:34.890Z,19.20
2023-11-26T11:32:04.372Z,19.20
2023-11-26T11:34:32.618Z,19.18
2023-11-26T11:37:01.498Z,19.14
2023-11-26T11:39:45.724Z,19.13
2023-11-26T11:42:15.087Z,19.12
2023-11-26T11:44:44.514Z,19.06
2023-11-26T11:47:15.120Z,19.08
2023-11-26T11:50:01.522Z,19.04
2023-11-26T11:52:29.846Z,19.07
2023-11-26T11:55:02.073Z,19.05
2023-11-26T11:57:30.685Z,19.09
2023-11-26T12:00:05.378Z,19.08
2023-11-26T12:02:36.114Z,19.09
2023-11-26T12:05:04.697Z,19.08
2023-11-26T12:07:33.960Z,19.05
2023-11-26T12:10:03.032Z,19.00
2023-11-26T12:12:31.230Z,18.98
2023-11-26T12:15:08.987Z,18.93
2023-11-26T12:17:38.445Z,18.93
2023-11-26T12:20:11.917Z,18.93
2023-11-26T12:22:45.476Z,18.94
2023-11-26T12:25:14.806Z,18.91
2023-11-26T12:27:42.803Z,18.89
2023-11-26T12:30:15.271Z,18.88
2023-11-26T12:32:44.699Z,18.89
2023-11-26T12:35:13.866Z,18.88
2023-11-26T12:37:44.576Z,18.88
2023-11-26T12:40:13.424Z,18.85
2023-11-26T12:42:42.970Z,18.89
2023-11-26T12:45:12.338Z,18.83
2023-11-26T12:47:52.672Z,18.89
2023-11-26T12:50:20.982Z,18.92
2023-11-26T12:52:49.659Z,18.93
2023-11-26T12:55:17.927Z,19.03
2023-11-26T12:57:47.239Z,19.10
2023-11-26T13:00:16.285Z,19.13
2023-11-26T13:02:47.729Z,19.12
2023-11-26T13:05:28.029Z,19.14
2023-11-26T13:07:56.582Z,19.12
2023-11-26T13:10:39.565Z,19.07
2023-11-26T13:13:07.722Z,19.03
2023-11-26T13:15:35.880Z,19.02
2023-11-26T13:18:03.992Z,19.02
2023-11-26T13:20:33.391Z,19.04
2023-11-26T13:23:03.973Z,19.05
2023-11-26T13:25:35.403Z,19.13
2023-11-26T13:28:06.294Z,19.14
2023-11-26T13:30:38.964Z,19.15
2023-11-26T13:33:07.154Z,19.17
2023-11-26T13:35:39.744Z,19.17
2023-11-26T13:38:09.812Z,19.20
2023-11-26T13:40:39.289Z,19.16
2023-11-26T13:43:08.070Z,19.19
2023-11-26T13:45:36.884Z,19.21
2023-11-26T13:48:10.873Z,19.17
2023-11-26T13:50:41.837Z,19.17
2023-11-26T13:53:10.990Z,19.11
2023-11-26T13:55:40.762Z,19.12
2023-11-26T13:58:08.781Z,19.06
2023-11-26T14:00:36.824Z,19.06
2023-11-26T14:03:06.276Z,19.06
2023-11-26T14:05:34.848Z,19.08
2023-11-26T14:08:04.435Z,19.11
2023-11-26T14:10:32.600Z,19.16
2023-11-26T14:13:00.891Z,19.14
2023-11-26T14:15:29.211Z,19.15
2023-11-26T14:17:58.807Z,19.18
2023-11-26T14:20:27.075Z,19.16
2023-11-26T14:22:54.998Z,19.17
2023-11-26T14:25:24.322Z,19.20
2023-11-26T14:27:52.966Z,19.16
2023-11-26T14:30:20.852Z,19.15
2023-11-26T14:32:49.464Z,19.13
2023-11-26T14:35:17.490Z,19.06
2023-11-26T14:37:45.532Z,19.02
2023-11-26T14:40:14.606Z,19.06
2023-11-26T14:42:45.063Z,19.02
2023-11-26T14:45:13.389Z,19.06
2023-11-26T14:47:42.024Z,19.07
2023-11-26T14:50:10.118Z,19.09
2023-11-26T14:52:39.788Z,19.13
2023-11-26T14:55:13.978Z,19.12
2023-11-26T14:57:42.797Z,19.13
2023-11-26T15:00:13.738Z,19.08
2023-11-26T15:02:41.947Z,19.13
2023-11-26T15:05:13.363Z,19.11
2023-11-26T15:07:42.777Z,19.14
2023-11-26T15:10:12.703Z,19.13
2023-11-26T15:12:41.087Z,19.10
2023-11-26T15:15:12.254Z,19.15
2023-11-26T15:17:43.280Z,19.10
2023-11-26T15:20:14.126Z,19.11
2023-11-26T15:22:43.242Z,19.09
2023-11-26T15:25:12.711Z,19.05
2023-11-26T15:27:42.481Z,19.06
2023-11-26T15:30:12.375Z,19.06
2023-11-26T15:32:41.247Z,19.10
2023-11-26T15:35:13.073Z,19.10
2023-11-26T15:37:41.836Z,19.11
2023-11-26T15:40:12.979Z,19.09
2023-11-26T15:42:41.567Z,19.11
2023-11-26T15:45:13.583Z,19.11
2023-11-26T15:47:42.012Z,19.08
2023-11-26T15:50:13.074Z,19.11
2023-11-26T15:52:41.099Z,19.15
2023-11-26T15:55:10.998Z,19.16
2023-11-26T15:57:39.308Z,19.18
2023-11-26T16:00:08.912Z,19.16
2023-11-26T16:02:43.188Z,19.19
2023-11-26T16:05:13.294Z,19.14
2023-11-26T16:07:41.332Z,19.15
2023-11-26T16:10:10.024Z,19.17
2023-11-26T16:12:38.329Z,19.15
2023-11-26T16:15:06.725Z,19.18
2023-11-26T16:17:35.363Z,19.16
2023-11-26T16:20:05.190Z,19.19
2023-11-26T16:22:36.755Z,19.16
2023-11-26T16:25:07.413Z,19.16
2023-11-26T16:27:35.437Z,19.16
2023-11-26T16:30:04.998Z,19.19
2023-11-26T16:32:34.205Z,19.19
2023-11-26T16:35:02.131Z,19.20
2023-11-26T16:37:32.256Z,19.18
2023-11-26T16:40:11.139Z,19.23
2023-11-26T16:42:40.563Z,19.21
2023-11-26T16:45:12.829Z,19.16
2023-11-26T16:47:41.068Z,19.18
2023-11-26T16:50:09.221Z,19.20
2023-11-26T16:52:37.146Z,19.17
2023-11-26T16:55:06.071Z,19.14
2023-11-26T16:57:34.159Z,19.19
2023-11-26T17:00:02.250Z,19.14
2023-11-26T17:02:32.026Z,19.15
2023-11-26T17:05:00.290Z,19.18
2023-11-26T17:07:28.202Z,19.17
2023-11-26T17:09:56.407Z,19.16
2023-11-26T17:12:25.803Z,19.15
2023-11-26T17:14:53.715Z,19.13
2023-11-26T17:17:24.615Z,19.14
2023-11-26T17:19:52.977Z,19.16
2023-11-26T17:22:21.002Z,19.17
2023-11-26T17:24:49.028Z,19.17
2023-11-26T17:27:17.014Z,19.13
2023-11-26T17:29:46.465Z,19.09
2023-11-26T17:32:14.385Z,19.03
2023-11-26T17:34:43.977Z,19.03
2023-11-26T17:37:11.922Z,18.99
2023-11-26T17:39:39.990Z,19.02
2023-11-26T17:42:08.533Z,19.01
2023-11-26T17:44:36.569Z,19.05
2023-11-26T17:47:08.831Z,19.08
2023-11-26T17:49:40.494Z,19.09
2023-11-26T17:52:08.426Z,19.06
2023-11-26T17:54:36.459Z,19.06
2023-11-26T17:57:04.482Z,19.12
2023-11-26T17:59:32.574Z,19.10
2023-11-26T18:02:00.620Z,19.10
2023-11-26T18:04:30.109Z,19.05
2023-11-26T18:06:58.162Z,19.07
2023-11-26T18:09:26.128Z,19.02
2023-11-26T18:11:54.127Z,18.95
2023-11-26T18:14:22.159Z,18.92
2023-11-26T18:16:53.618Z,18.92
2023-11-26T18:19:23.137Z,18.91
2023-11-26T18:21:53.370Z,18.94
2023-11-26T18:24:21.389Z,19.01
2023-11-26T18:26:49.297Z,19.02
2023-11-26T18:29:17.306Z,19.02
2023-11-26T18:31:45.554Z,19.02
2023-11-26T18:34:13.868Z,19.02
2023-11-26T18:36:42.453Z,18.99
2023-11-26T18:39:11.799Z,18.97
2023-11-26T18:41:39.738Z,18.92
2023-11-26T18:44:08.782Z,18.89
2023-11-26T18:46:37.596Z,18.88
2023-11-26T18:49:05.676Z,18.84
2023-11-26T18:51:33.984Z,18.82
2023-11-26T18:54:01.968Z,18.82
2023-11-26T18:56:31.316Z,18.83
2023-11-26T18:59:04.731Z,18.83
2023-11-26T19:01:32.758Z,18.84
2023-11-26T19:04:00.705Z,18.92
2023-11-26T19:06:28.711Z,18.94
2023-11-26T19:08:57.468Z,18.95
2023-11-26T19:11:27.447Z,18.97
2023-11-26T19:13:57.928Z,18.98
2023-11-26T19:16:27.035Z,19.02
2023-11-26T19:18:55.002Z,19.02
2023-11-26T19:21:23.129Z,19.04
2023-11-26T19:23:52.314Z,19.06
2023-11-26T19:26:21.089Z,19.08
2023-11-26T19:28:49.420Z,19.00
2023-11-26T19:31:20.267Z,19.03
2023-11-26T19:33:49.883Z,19.05
2023-11-26T19:36:18.623Z,18.98
2023-11-26T19:38:47.003Z,18.99
2023-11-26T19:41:15.555Z,18.98
2023-11-26T19:43:43.561Z,19.02
2023-11-26T19:46:12.119Z,19.05
2023-11-26T19:48:41.768Z,19.04
2023-11-26T19:51:16.835Z,19.09
2023-11-26T19:53:47.008Z,19.05
2023-11-26T19:56:16.321Z,19.06
2023-11-26T19:58:44.772Z,19.07
2023-11-26T20:01:13.338Z,19.09
2023-11-26T20:03:43.349Z,19.08
2023-11-26T20:06:12.899Z,19.13
2023-11-26T20:08:41.448Z,19.11
2023-11-26T20:11:09.998Z,19.12
2023-11-26T20:13:38.012Z,19.14
2023-11-26T20:16:06.465Z,19.13
2023-11-26T20:18:35.317Z,19.12
2023-11-26T20:21:07.046Z,19.12
2023-11-26T20:23:35.872Z,19.09
2023-11-26T20:26:04.043Z,19.10
2023-11-26T20:28:32.047Z,19.10
2023-11-26T20:31:07.955Z,19.12
2023-11-26T20:33:37.775Z,19.18
2023-11-26T20:36:08.852Z,19.18
2023-11-26T20:38:38.189Z,19.21
2023-11-26T20:41:06.250Z,19.13
2023-11-26T20:43:34.243Z,19.13
2023-11-26T20:46:02.425Z,19.15
2023-11-26T20:48:30.621Z,19.11
2023-11-26T20:50:58.513Z,19.12
2023-11-26T20:53:27.988Z,19.14
2023-11-26T20:55:55.973Z,19.15
2023-11-26T20:58:28.641Z,19.16
2023-11-26T21:00:56.800Z,19.13
2023-11-26T21:03:25.243Z,19.13
2023-11-26T21:05:53.189Z,19.16
2023-11-26T21:08:21.973Z,19.14
2023-11-26T21:10:51.452Z,19.09
2023-11-26T21:13:19.549Z,19.14
2023-11-26T21:15:47.613Z,19.11
2023-11-26T21:18:17.303Z,19.15
2023-11-26T21:20:45.229Z,19.12
2023-11-26T21:23:13.249Z,19.13
2023-11-26T21:25:41.547Z,19.12
2023-11-26T21:28:11.116Z,19.12
2023-11-26T21:30:39.048Z,19.15
2023-11-26T21:33:07.109Z,19.15
2023-11-26T21:35:35.013Z,19.14
2023-11-26T21:38:02.940Z,19.17
2023-11-26T21:40:30.937Z,19.14
2023-11-26T21:42:59.057Z,19.15
2023-11-26T21:45:28.882Z,19.14
2023-11-26T21:47:59.916Z,19.16
2023-11-26T21:50:31.167Z,19.16
2023-11-26T21:52:59.178Z,19.18
2023-11-26T21:55:27.066Z,19.16
2023-11-26T21:57:55.023Z,19.18
2023-11-26T22:00:22.913Z,19.13
2023-11-26T22:02:52.481Z,19.13
2023-11-26T22:05:20.585Z,19.18
2023-11-26T22:07:48.509Z,19.15
2023-11-26T22:10:16.496Z,19.12
2023-11-26T22:12:44.396Z,19.12
2023-11-26T22:15:12.791Z,19.13
2023-11-26T22:17:40.811Z,19.11
2023-11-26T22:20:11.234Z,19.11
2023-11-26T22:22:42.127Z,19.08
2023-11-26T22:25:11.592Z,19.07
2023-11-26T22:27:39.580Z,19.11
2023-11-26T22:30:11.372Z,19.08
2023-11-26T22:32:40.648Z,19.11
2023-11-26T22:35:11.620Z,19.11
2023-11-26T22:37:40.713Z,19.10
2023-11-26T22:40:09.208Z,19.01
2023-11-26T22:42:37.766Z,19.01
2023-11-26T22:45:07.122Z,18.92
2023-11-26T22:47:35.207Z,18.92
2023-11-26T22:50:03.397Z,18.90
2023-11-26T22:52:33.296Z,18.89
2023-11-26T22:55:01.335Z,18.93
2023-11-26T22:57:29.946Z,18.94
2023-11-26T22:59:58.137Z,18.98
2023-11-26T23:02:26.106Z,18.97
2023-11-26T23:04:54.583Z,19.00
2023-11-26T23:07:22.485Z,19.04
2023-11-26T23:09:51.876Z,19.06
2023-11-26T23:12:19.996Z,18.97
2023-11-26T23:14:48.100Z,18.94
2023-11-26T23:17:16.291Z,18.90
2023-11-26T23:19:44.416Z,18.88
2023-11-26T23:22:13.713Z,18.83
2023-11-26T23:24:41.669Z,18.81
2023-11-26T23:27:11.083Z,18.80
2023-11-26T23:29:38.981Z,18.81
2023-11-26T23:32:07.395Z,18.82
2023-11-26T23:34:35.373Z,18.87
2023-11-26T23:37:03.509Z,18.86
2023-11-26T23:39:32.071Z,18.91
2023-11-26T23:41:59.994Z,18.86
2023-11-26T23:44:29.428Z,18.87
2023-11-26T23:46:57.465Z,18.80
2023-11-26T23:49:25.441Z,18.80
2023-11-26T23:51:53.428Z,18.79
2023-11-26T23:54:21.322Z,18.78
2023-11-26T23:56:49.274Z,18.81
2023-11-26T23:59:17.217Z,18.82
